sensor_id;sensor_type;location;lat;lon;timestamp;pressure;altitude;pressure_sealevel;temperature
71897;BMP280;59767;51.344;12.362;2023-09-30T00:01:25;163436.09;;;18.49
71897;BMP280;59767;51.344;12.362;2023-09-30T00:04:29;163404.59;;;18.37
71897;BMP280;59767;51.344;12.362;2023-09-30T00:07:34;163425.56;;;18.45
71897;BMP280;59767;51.344;12.362;2023-09-30T00:10:39;163444.00;;;18.52
71897;BMP280;59767;51.344;12.362;2023-09-30T00:13:43;163451.84;;;18.55
71897;BMP280;59767;51.344;12.362;2023-09-30T00:16:47;163424.25;;;18.44
71897;BMP280;59767;51.344;12.362;2023-09-30T00:19:51;163417.72;;;18.42
71897;BMP280;59767;51.344;12.362;2023-09-30T00:22:56;163419.06;;;18.42
71897;BMP280;59767;51.344;12.362;2023-09-30T00:26:00;163377.03;;;18.26
71897;BMP280;59767;51.344;12.362;2023-09-30T00:29:04;163398.00;;;18.34
71897;BMP280;59767;51.344;12.362;2023-09-30T00:32:08;163419.06;;;18.42
71897;BMP280;59767;51.344;12.362;2023-09-30T00:35:13;163386.22;;;18.30
71897;BMP280;59767;51.344;12.362;2023-09-30T00:38:18;163359.97;;;18.20
71897;BMP280;59767;51.344;12.362;2023-09-30T00:41:23;163328.41;;;18.08
71897;BMP280;59767;51.344;12.362;2023-09-30T00:44:27;163320.56;;;18.05
71897;BMP280;59767;51.344;12.362;2023-09-30T00:47:33;163312.72;;;18.02
71897;BMP280;59767;51.344;12.362;2023-09-30T00:50:38;163317.97;;;18.04
71897;BMP280;59767;51.344;12.362;2023-09-30T00:53:43;163302.19;;;17.98
71897;BMP280;59767;51.344;12.362;2023-09-30T00:56:49;163296.97;;;17.96
71897;BMP280;59767;51.344;12.362;2023-09-30T00:59:54;163283.81;;;17.91
71897;BMP280;59767;51.344;12.362;2023-09-30T01:02:59;163257.63;;;17.81
71897;BMP280;59767;51.344;12.362;2023-09-30T01:06:08;163241.81;;;17.75
71897;BMP280;59767;51.344;12.362;2023-09-30T01:09:13;163243.13;;;17.75
71897;BMP280;59767;51.344;12.362;2023-09-30T01:12:18;163231.34;;;17.71
71897;BMP280;59767;51.344;12.362;2023-09-30T01:15:22;163212.97;;;17.64
71897;BMP280;59767;51.344;12.362;2023-09-30T01:18:27;163198.56;;;17.58
71897;BMP280;59767;51.344;12.362;2023-09-30T01:21:34;163185.44;;;17.53
71897;BMP280;59767;51.344;12.362;2023-09-30T01:24:39;163174.91;;;17.49
71897;BMP280;59767;51.344;12.362;2023-09-30T01:27:44;163152.59;;;17.41
71897;BMP280;59767;51.344;12.362;2023-09-30T01:30:48;163178.81;;;17.51
71897;BMP280;59767;51.344;12.362;2023-09-30T01:33:52;163160.50;;;17.44
71897;BMP280;59767;51.344;12.362;2023-09-30T01:36:59;163159.16;;;17.43
71897;BMP280;59767;51.344;12.362;2023-09-30T01:40:03;163168.34;;;17.47
71897;BMP280;59767;51.344;12.362;2023-09-30T01:43:08;163168.34;;;17.47
71897;BMP280;59767;51.344;12.362;2023-09-30T01:46:12;163197.22;;;17.58
71897;BMP280;59767;51.344;12.362;2023-09-30T01:49:16;163164.41;;;17.45
71897;BMP280;59767;51.344;12.362;2023-09-30T01:52:22;163151.31;;;17.40
71897;BMP280;59767;51.344;12.362;2023-09-30T01:55:25;163128.94;;;17.32
71897;BMP280;59767;51.344;12.362;2023-09-30T01:58:30;163104.03;;;17.22
71897;BMP280;59767;51.344;12.362;2023-09-30T02:01:34;163085.72;;;17.15
71897;BMP280;59767;51.344;12.362;2023-09-30T02:04:38;163052.91;;;17.03
71897;BMP280;59767;51.344;12.362;2023-09-30T02:07:42;163021.41;;;16.91
71897;BMP280;59767;51.344;12.362;2023-09-30T02:10:47;163021.41;;;16.91
71897;BMP280;59767;51.344;12.362;2023-09-30T02:13:51;163003.03;;;16.84
71897;BMP280;59767;51.344;12.362;2023-09-30T02:16:55;162982.06;;;16.76
71897;BMP280;59767;51.344;12.362;2023-09-30T02:19:59;162980.75;;;16.75
71897;BMP280;59767;51.344;12.362;2023-09-30T02:23:09;162966.34;;;16.70
71897;BMP280;59767;51.344;12.362;2023-09-30T02:26:15;162968.94;;;16.71
71897;BMP280;59767;51.344;12.362;2023-09-30T02:29:19;162942.69;;;16.61
71897;BMP280;59767;51.344;12.362;2023-09-30T02:32:24;162928.28;;;16.55
71897;BMP280;59767;51.344;12.362;2023-09-30T02:35:28;162926.97;;;16.55
71897;BMP280;59767;51.344;12.362;2023-09-30T02:38:33;162933.47;;;16.57
71897;BMP280;59767;51.344;12.362;2023-09-30T02:41:37;162941.41;;;16.60
71897;BMP280;59767;51.344;12.362;2023-09-30T02:44:41;162947.94;;;16.63
71897;BMP280;59767;51.344;12.362;2023-09-30T02:47:49;162941.41;;;16.60
71897;BMP280;59767;51.344;12.362;2023-09-30T02:50:53;162929.56;;;16.56
71897;BMP280;59767;51.344;12.362;2023-09-30T02:53:58;162924.34;;;16.54
71897;BMP280;59767;51.344;12.362;2023-09-30T02:57:02;162912.50;;;16.49
71897;BMP280;59767;51.344;12.362;2023-09-30T03:00:09;162909.91;;;16.48
71897;BMP280;59767;51.344;12.362;2023-09-30T03:03:30;162884.97;;;16.39
71897;BMP280;59767;51.344;12.362;2023-09-30T03:06:35;162882.34;;;16.38
71897;BMP280;59767;51.344;12.362;2023-09-30T03:09:43;162882.34;;;16.38
71897;BMP280;59767;51.344;12.362;2023-09-30T03:12:47;162874.50;;;16.35
71897;BMP280;59767;51.344;12.362;2023-09-30T03:15:52;162866.63;;;16.32
71897;BMP280;59767;51.344;12.362;2023-09-30T03:18:56;162853.50;;;16.27
71897;BMP280;59767;51.344;12.362;2023-09-30T03:22:00;162843.00;;;16.23
71897;BMP280;59767;51.344;12.362;2023-09-30T03:25:10;162807.63;;;16.09
71897;BMP280;59767;51.344;12.362;2023-09-30T03:28:15;162785.28;;;16.01
71897;BMP280;59767;51.344;12.362;2023-09-30T03:31:20;162766.94;;;15.94
71897;BMP280;59767;51.344;12.362;2023-09-30T03:34:24;162759.03;;;15.91
71897;BMP280;59767;51.344;12.362;2023-09-30T03:37:28;162741.97;;;15.84
71897;BMP280;59767;51.344;12.362;2023-09-30T03:40:33;162732.88;;;15.81
71897;BMP280;59767;51.344;12.362;2023-09-30T03:43:38;162725.03;;;15.78
71897;BMP280;59767;51.344;12.362;2023-09-30T03:46:44;162715.78;;;15.74
71897;BMP280;59767;51.344;12.362;2023-09-30T03:49:48;162711.91;;;15.73
71897;BMP280;59767;51.344;12.362;2023-09-30T03:53:01;162706.63;;;15.71
71897;BMP280;59767;51.344;12.362;2023-09-30T03:56:04;162706.63;;;15.71
71897;BMP280;59767;51.344;12.362;2023-09-30T03:59:09;162692.16;;;15.65
71897;BMP280;59767;51.344;12.362;2023-09-30T04:02:13;162688.22;;;15.64
71897;BMP280;59767;51.344;12.362;2023-09-30T04:05:18;162669.94;;;15.57
71897;BMP280;59767;51.344;12.362;2023-09-30T04:08:23;162656.78;;;15.52
71897;BMP280;59767;51.344;12.362;2023-09-30T04:11:27;162664.66;;;15.55
71897;BMP280;59767;51.344;12.362;2023-09-30T04:14:31;162671.22;;;15.57
71897;BMP280;59767;51.344;12.362;2023-09-30T04:17:36;162655.44;;;15.51
71897;BMP280;59767;51.344;12.362;2023-09-30T04:20:42;162648.94;;;15.49
71897;BMP280;59767;51.344;12.362;2023-09-30T04:23:49;162637.16;;;15.44
71897;BMP280;59767;51.344;12.362;2023-09-30T04:26:53;162624.03;;;15.39
71897;BMP280;59767;51.344;12.362;2023-09-30T04:30:01;162604.38;;;15.32
71897;BMP280;59767;51.344;12.362;2023-09-30T04:33:12;162585.97;;;15.25
71897;BMP280;59767;51.344;12.362;2023-09-30T04:36:17;162576.81;;;15.21
71897;BMP280;59767;51.344;12.362;2023-09-30T04:39:21;162571.53;;;15.19
71897;BMP280;59767;51.344;12.362;2023-09-30T04:42:26;162563.69;;;15.16
71897;BMP280;59767;51.344;12.362;2023-09-30T04:45:31;162566.34;;;15.17
71897;BMP280;59767;51.344;12.362;2023-09-30T04:48:35;162557.13;;;15.14
71897;BMP280;59767;51.344;12.362;2023-09-30T04:51:39;162546.63;;;15.10
71897;BMP280;59767;51.344;12.362;2023-09-30T04:54:43;162532.25;;;15.04
71897;BMP280;59767;51.344;12.362;2023-09-30T04:57:49;162532.25;;;15.04
71897;BMP280;59767;51.344;12.362;2023-09-30T05:00:53;162525.75;;;15.02
71897;BMP280;59767;51.344;12.362;2023-09-30T05:03:58;162541.41;;;15.08
71897;BMP280;59767;51.344;12.362;2023-09-30T05:07:03;162547.97;;;15.10
71897;BMP280;59767;51.344;12.362;2023-09-30T05:10:08;162533.56;;;15.05
71897;BMP280;59767;51.344;12.362;2023-09-30T05:13:17;162530.91;;;15.04
71897;BMP280;59767;51.344;12.362;2023-09-30T05:16:22;162520.47;;;15.00
71897;BMP280;59767;51.344;12.362;2023-09-30T05:19:26;162512.56;;;14.97
71897;BMP280;59767;51.344;12.362;2023-09-30T05:22:30;162507.34;;;14.95
71897;BMP280;59767;51.344;12.362;2023-09-30T05:25:34;162508.69;;;14.95
71897;BMP280;59767;51.344;12.362;2023-09-30T05:28:39;162508.69;;;14.95
71897;BMP280;59767;51.344;12.362;2023-09-30T05:31:43;162492.91;;;14.89
71897;BMP280;59767;51.344;12.362;2023-09-30T05:34:47;162506.03;;;14.94
71897;BMP280;59767;51.344;12.362;2023-09-30T05:37:52;162495.56;;;14.90
71897;BMP280;59767;51.344;12.362;2023-09-30T05:40:57;162496.81;;;14.91
71897;BMP280;59767;51.344;12.362;2023-09-30T05:44:03;162488.97;;;14.88
71897;BMP280;59767;51.344;12.362;2023-09-30T05:47:08;162488.97;;;14.88
71897;BMP280;59767;51.344;12.362;2023-09-30T05:50:12;162473.25;;;14.82
71897;BMP280;59767;51.344;12.362;2023-09-30T05:53:20;162465.41;;;14.79
71897;BMP280;59767;51.344;12.362;2023-09-30T05:56:24;162462.81;;;14.78
71897;BMP280;59767;51.344;12.362;2023-09-30T05:59:28;162454.91;;;14.75
71897;BMP280;59767;51.344;12.362;2023-09-30T06:02:33;162451.03;;;14.73
71897;BMP280;59767;51.344;12.362;2023-09-30T06:05:42;162462.81;;;14.78
71897;BMP280;59767;51.344;12.362;2023-09-30T06:08:46;162453.59;;;14.74
71897;BMP280;59767;51.344;12.362;2023-09-30T06:11:51;162453.59;;;14.74
71897;BMP280;59767;51.344;12.362;2023-09-30T06:14:55;162467.97;;;14.80
71897;BMP280;59767;51.344;12.362;2023-09-30T06:17:59;162470.63;;;14.81
71897;BMP280;59767;51.344;12.362;2023-09-30T06:21:04;162494.25;;;14.90
71897;BMP280;59767;51.344;12.362;2023-09-30T06:24:09;162517.81;;;14.99
71897;BMP280;59767;51.344;12.362;2023-09-30T06:27:12;162555.81;;;15.13
71897;BMP280;59767;51.344;12.362;2023-09-30T06:30:17;162588.59;;;15.26
71897;BMP280;59767;51.344;12.362;2023-09-30T06:33:23;162618.75;;;15.37
71897;BMP280;59767;51.344;12.362;2023-09-30T06:36:27;162633.22;;;15.43
71897;BMP280;59767;51.344;12.362;2023-09-30T06:39:31;162648.94;;;15.49
71897;BMP280;59767;51.344;12.362;2023-09-30T06:42:36;162635.81;;;15.44
71897;BMP280;59767;51.344;12.362;2023-09-30T06:45:44;162666.00;;;15.55
71897;BMP280;59767;51.344;12.362;2023-09-30T06:48:50;162709.25;;;15.72
71897;BMP280;59767;51.344;12.362;2023-09-30T06:51:57;162711.91;;;15.73
71897;BMP280;59767;51.344;12.362;2023-09-30T06:55:02;162717.06;;;15.75
71897;BMP280;59767;51.344;12.362;2023-09-30T06:58:09;162709.25;;;15.72
71897;BMP280;59767;51.344;12.362;2023-09-30T07:01:15;162710.56;;;15.72
71897;BMP280;59767;51.344;12.362;2023-09-30T07:04:22;162736.81;;;15.82
71897;BMP280;59767;51.344;12.362;2023-09-30T07:07:28;162756.44;;;15.90
71897;BMP280;59767;51.344;12.362;2023-09-30T07:10:32;162764.31;;;15.93
71897;BMP280;59767;51.344;12.362;2023-09-30T07:13:36;162783.94;;;16.00
71897;BMP280;59767;51.344;12.362;2023-09-30T07:16:40;162798.41;;;16.06
71897;BMP280;59767;51.344;12.362;2023-09-30T07:19:44;162798.41;;;16.06
71897;BMP280;59767;51.344;12.362;2023-09-30T07:22:50;162783.94;;;16.00
71897;BMP280;59767;51.344;12.362;2023-09-30T07:26:10;162785.28;;;16.01
71897;BMP280;59767;51.344;12.362;2023-09-30T07:29:14;162789.22;;;16.02
71897;BMP280;59767;51.344;12.362;2023-09-30T07:32:18;162780.06;;;15.99
71897;BMP280;59767;51.344;12.362;2023-09-30T07:35:23;162776.09;;;15.97
71897;BMP280;59767;51.344;12.362;2023-09-30T07:38:27;162774.81;;;15.97
71897;BMP280;59767;51.344;12.362;2023-09-30T07:41:35;162786.63;;;16.01
71897;BMP280;59767;51.344;12.362;2023-09-30T07:44:41;162783.94;;;16.00
71897;BMP280;59767;51.344;12.362;2023-09-30T07:47:45;162814.13;;;16.12
71897;BMP280;59767;51.344;12.362;2023-09-30T07:50:53;162865.28;;;16.31
71897;BMP280;59767;51.344;12.362;2023-09-30T07:53:58;162908.56;;;16.48
71897;BMP280;59767;51.344;12.362;2023-09-30T07:57:22;162959.72;;;16.67
71897;BMP280;59767;51.344;12.362;2023-09-30T08:00:26;162962.34;;;16.68
71897;BMP280;59767;51.344;12.362;2023-09-30T08:03:30;162966.34;;;16.70
71897;BMP280;59767;51.344;12.362;2023-09-30T08:06:35;162984.63;;;16.77
71897;BMP280;59767;51.344;12.362;2023-09-30T08:09:39;162985.97;;;16.77
71897;BMP280;59767;51.344;12.362;2023-09-30T08:12:43;162999.09;;;16.82
71897;BMP280;59767;51.344;12.362;2023-09-30T08:15:52;163026.63;;;16.93
71897;BMP280;59767;51.344;12.362;2023-09-30T08:18:57;163037.16;;;16.97
71897;BMP280;59767;51.344;12.362;2023-09-30T08:22:01;163050.22;;;17.02
71897;BMP280;59767;51.344;12.362;2023-09-30T08:25:06;163084.38;;;17.15
71897;BMP280;59767;51.344;12.362;2023-09-30T08:28:12;163170.97;;;17.48
71897;BMP280;59767;51.344;12.362;2023-09-30T08:31:16;163195.91;;;17.57
71897;BMP280;59767;51.344;12.362;2023-09-30T08:34:20;163199.84;;;17.59
71897;BMP280;59767;51.344;12.362;2023-09-30T08:37:25;163260.22;;;17.82
71897;BMP280;59767;51.344;12.362;2023-09-30T08:40:30;163262.84;;;17.83
71897;BMP280;59767;51.344;12.362;2023-09-30T08:43:38;163399.28;;;18.35
71897;BMP280;59767;51.344;12.362;2023-09-30T08:46:43;163450.53;;;18.54
71897;BMP280;59767;51.344;12.362;2023-09-30T08:49:50;163441.34;;;18.51
71897;BMP280;59767;51.344;12.362;2023-09-30T08:53:00;163440.06;;;18.50
71897;BMP280;59767;51.344;12.362;2023-09-30T08:56:06;163438.72;;;18.50
71897;BMP280;59767;51.344;12.362;2023-09-30T08:59:14;163433.44;;;18.48
71897;BMP280;59767;51.344;12.362;2023-09-30T09:02:19;163408.53;;;18.38
71897;BMP280;59767;51.344;12.362;2023-09-30T09:05:23;163462.31;;;18.59
71897;BMP280;59767;51.344;12.362;2023-09-30T09:08:28;163501.75;;;18.74
71897;BMP280;59767;51.344;12.362;2023-09-30T09:11:37;163696.06;;;19.48
71897;BMP280;59767;51.344;12.362;2023-09-30T09:14:41;163700.00;;;19.49
71897;BMP280;59767;51.344;12.362;2023-09-30T09:17:50;163688.22;;;19.45
71897;BMP280;59767;51.344;12.362;2023-09-30T09:21:10;163619.91;;;19.19
71897;BMP280;59767;51.344;12.362;2023-09-30T09:24:36;163585.81;;;19.06
71897;BMP280;59767;51.344;12.362;2023-09-30T09:27:42;163551.59;;;18.93
71897;BMP280;59767;51.344;12.362;2023-09-30T09:30:47;163524.03;;;18.82
71897;BMP280;59767;51.344;12.362;2023-09-30T09:33:52;163516.19;;;18.79
71897;BMP280;59767;51.344;12.362;2023-09-30T09:36:57;163489.94;;;18.69
71897;BMP280;59767;51.344;12.362;2023-09-30T09:40:02;163463.66;;;18.59
71897;BMP280;59767;51.344;12.362;2023-09-30T09:43:09;163530.59;;;18.85
71897;BMP280;59767;51.344;12.362;2023-09-30T09:46:14;163535.88;;;18.87
71897;BMP280;59767;51.344;12.362;2023-09-30T09:49:19;163533.22;;;18.86
71897;BMP280;59767;51.344;12.362;2023-09-30T09:52:24;163547.69;;;18.91
71897;BMP280;59767;51.344;12.362;2023-09-30T09:55:28;163605.47;;;19.13
71897;BMP280;59767;51.344;12.362;2023-09-30T09:58:33;163643.56;;;19.28
71897;BMP280;59767;51.344;12.362;2023-09-30T10:01:42;163665.88;;;19.36
71897;BMP280;59767;51.344;12.362;2023-09-30T10:04:47;163623.84;;;19.20
71897;BMP280;59767;51.344;12.362;2023-09-30T10:07:56;163592.31;;;19.08
71897;BMP280;59767;51.344;12.362;2023-09-30T10:11:01;163617.28;;;19.18
71897;BMP280;59767;51.344;12.362;2023-09-30T10:14:06;163619.91;;;19.19
71897;BMP280;59767;51.344;12.362;2023-09-30T10:17:16;163635.66;;;19.25
71897;BMP280;59767;51.344;12.362;2023-09-30T10:20:27;163633.00;;;19.24
71897;BMP280;59767;51.344;12.362;2023-09-30T10:23:31;163619.91;;;19.19
71897;BMP280;59767;51.344;12.362;2023-09-30T10:26:37;163660.63;;;19.34
71897;BMP280;59767;51.344;12.362;2023-09-30T10:29:41;163669.75;;;19.38
71897;BMP280;59767;51.344;12.362;2023-09-30T10:36:01;163724.94;;;19.58
71897;BMP280;59767;51.344;12.362;2023-09-30T10:39:13;163852.38;;;20.07
71897;BMP280;59767;51.344;12.362;2023-09-30T10:42:45;163960.09;;;20.48
71897;BMP280;59767;51.344;12.362;2023-09-30T10:45:49;164011.28;;;20.67
71897;BMP280;59767;51.344;12.362;2023-09-30T10:48:54;164074.34;;;20.91
71897;BMP280;59767;51.344;12.362;2023-09-30T10:51:59;164075.69;;;20.92
71897;BMP280;59767;51.344;12.362;2023-09-30T10:55:05;164091.47;;;20.98
71897;BMP280;59767;51.344;12.362;2023-09-30T10:58:12;164013.94;;;20.68
71897;BMP280;59767;51.344;12.362;2023-09-30T11:01:21;163985.06;;;20.57
71897;BMP280;59767;51.344;12.362;2023-09-30T11:04:26;163992.94;;;20.60
71897;BMP280;59767;51.344;12.362;2023-09-30T11:07:32;163902.28;;;20.26
71897;BMP280;59767;51.344;12.362;2023-09-30T11:10:37;163806.41;;;19.89
71897;BMP280;59767;51.344;12.362;2023-09-30T11:13:41;163840.50;;;20.02
71897;BMP280;59767;51.344;12.362;2023-09-30T11:16:46;163832.66;;;19.99
71897;BMP280;59767;51.344;12.362;2023-09-30T11:19:50;163839.22;;;20.02
71897;BMP280;59767;51.344;12.362;2023-09-30T11:22:56;163868.09;;;20.13
71897;BMP280;59767;51.344;12.362;2023-09-30T11:26:00;163891.75;;;20.22
71897;BMP280;59767;51.344;12.362;2023-09-30T11:29:13;163911.47;;;20.29
71897;BMP280;59767;51.344;12.362;2023-09-30T11:32:24;163895.69;;;20.23
71897;BMP280;59767;51.344;12.362;2023-09-30T11:35:31;163827.41;;;19.97
71897;BMP280;59767;51.344;12.362;2023-09-30T11:38:35;163866.81;;;20.12
71897;BMP280;59767;51.344;12.362;2023-09-30T11:41:42;163910.19;;;20.29
71897;BMP280;59767;51.344;12.362;2023-09-30T11:44:47;163952.22;;;20.45
71897;BMP280;59767;51.344;12.362;2023-09-30T11:47:53;164052.03;;;20.83
71897;BMP280;59767;51.344;12.362;2023-09-30T11:50:58;164071.78;;;20.90
71897;BMP280;59767;51.344;12.362;2023-09-30T11:54:04;164048.13;;;20.81
71897;BMP280;59767;51.344;12.362;2023-09-30T11:57:12;164037.59;;;20.77
71897;BMP280;59767;51.344;12.362;2023-09-30T12:00:19;164105.91;;;21.03
71897;BMP280;59767;51.344;12.362;2023-09-30T12:03:23;164134.84;;;21.14
71897;BMP280;59767;51.344;12.362;2023-09-30T12:06:27;164161.13;;;21.24
71897;BMP280;59767;51.344;12.362;2023-09-30T12:09:32;164129.56;;;21.12
71897;BMP280;59767;51.344;12.362;2023-09-30T12:12:39;164144.06;;;21.18
71897;BMP280;59767;51.344;12.362;2023-09-30T12:15:44;164190.03;;;21.35
71897;BMP280;59767;51.344;12.362;2023-09-30T12:18:48;164175.56;;;21.30
71897;BMP280;59767;51.344;12.362;2023-09-30T12:21:52;164161.13;;;21.24
71897;BMP280;59767;51.344;12.362;2023-09-30T12:24:56;164188.69;;;21.35
71897;BMP280;59767;51.344;12.362;2023-09-30T12:28:01;164142.72;;;21.17
71897;BMP280;59767;51.344;12.362;2023-09-30T12:31:05;164108.53;;;21.04
71897;BMP280;59767;51.344;12.362;2023-09-30T12:34:11;164111.16;;;21.05
71897;BMP280;59767;51.344;12.362;2023-09-30T12:37:15;164220.22;;;21.47
71897;BMP280;59767;51.344;12.362;2023-09-30T12:40:20;164162.41;;;21.25
71897;BMP280;59767;51.344;12.362;2023-09-30T12:43:23;164191.31;;;21.36
71897;BMP280;59767;51.344;12.362;2023-09-30T12:46:28;164107.19;;;21.04
71897;BMP280;59767;51.344;12.362;2023-09-30T12:49:33;164113.84;;;21.06
71897;BMP280;59767;51.344;12.362;2023-09-30T12:52:37;164038.94;;;20.78
71897;BMP280;59767;51.344;12.362;2023-09-30T12:55:42;163994.25;;;20.61
71897;BMP280;59767;51.344;12.362;2023-09-30T12:58:47;163979.75;;;20.55
71897;BMP280;59767;51.344;12.362;2023-09-30T13:01:53;163962.72;;;20.49
71897;BMP280;59767;51.344;12.362;2023-09-30T13:04:58;163983.72;;;20.57
71897;BMP280;59767;51.344;12.362;2023-09-30T13:08:02;164016.56;;;20.69
71897;BMP280;59767;51.344;12.362;2023-09-30T13:11:07;164036.25;;;20.77
71897;BMP280;59767;51.344;12.362;2023-09-30T13:14:11;164000.78;;;20.63
71897;BMP280;59767;51.344;12.362;2023-09-30T13:17:15;164016.56;;;20.69
71897;BMP280;59767;51.344;12.362;2023-09-30T13:20:20;163996.88;;;20.62
71897;BMP280;59767;51.344;12.362;2023-09-30T13:23:25;164007.38;;;20.66
71897;BMP280;59767;51.344;12.362;2023-09-30T13:26:31;164056.00;;;20.84
71897;BMP280;59767;51.344;12.362;2023-09-30T13:29:35;164115.13;;;21.07
71897;BMP280;59767;51.344;12.362;2023-09-30T13:32:39;164115.13;;;21.07
71897;BMP280;59767;51.344;12.362;2023-09-30T13:35:45;164086.16;;;20.96
71897;BMP280;59767;51.344;12.362;2023-09-30T13:38:49;164069.16;;;20.89
71897;BMP280;59767;51.344;12.362;2023-09-30T13:41:53;164036.25;;;20.77
71897;BMP280;59767;51.344;12.362;2023-09-30T13:44:58;163978.44;;;20.55
71897;BMP280;59767;51.344;12.362;2023-09-30T13:48:02;164015.28;;;20.69
71897;BMP280;59767;51.344;12.362;2023-09-30T13:51:08;164077.00;;;20.92
71897;BMP280;59767;51.344;12.362;2023-09-30T13:54:12;164080.97;;;20.94
71897;BMP280;59767;51.344;12.362;2023-09-30T13:57:18;164184.78;;;21.33
71897;BMP280;59767;51.344;12.362;2023-09-30T14:00:23;164187.41;;;21.34
71897;BMP280;59767;51.344;12.362;2023-09-30T14:03:27;164108.53;;;21.04
71897;BMP280;59767;51.344;12.362;2023-09-30T14:06:32;164053.31;;;20.83
71897;BMP280;59767;51.344;12.362;2023-09-30T14:09:37;164094.09;;;20.99
71897;BMP280;59767;51.344;12.362;2023-09-30T14:12:42;164084.88;;;20.95
71897;BMP280;59767;51.344;12.362;2023-09-30T14:15:47;164112.50;;;21.06
71897;BMP280;59767;51.344;12.362;2023-09-30T14:18:51;164165.09;;;21.26
71897;BMP280;59767;51.344;12.362;2023-09-30T14:21:56;164149.25;;;21.20
71897;BMP280;59767;51.344;12.362;2023-09-30T14:25:02;164140.09;;;21.16
71897;BMP280;59767;51.344;12.362;2023-09-30T14:28:07;164082.25;;;20.94
71897;BMP280;59767;51.344;12.362;2023-09-30T14:31:11;164036.25;;;20.77
71897;BMP280;59767;51.344;12.362;2023-09-30T14:34:16;163970.56;;;20.52
71897;BMP280;59767;51.344;12.362;2023-09-30T14:37:19;163940.34;;;20.40
71897;BMP280;59767;51.344;12.362;2023-09-30T14:40:24;163904.88;;;20.27
71897;BMP280;59767;51.344;12.362;2023-09-30T14:43:28;163870.72;;;20.14
71897;BMP280;59767;51.344;12.362;2023-09-30T14:46:34;163856.34;;;20.08
71897;BMP280;59767;51.344;12.362;2023-09-30T14:49:38;163835.28;;;20.00
71897;BMP280;59767;51.344;12.362;2023-09-30T14:52:43;163811.63;;;19.91
71897;BMP280;59767;51.344;12.362;2023-09-30T14:55:47;163795.88;;;19.85
71897;BMP280;59767;51.344;12.362;2023-09-30T14:58:51;163785.38;;;19.81
71897;BMP280;59767;51.344;12.362;2023-09-30T15:01:56;163795.88;;;19.85
71897;BMP280;59767;51.344;12.362;2023-09-30T15:05:00;163757.75;;;19.71
71897;BMP280;59767;51.344;12.362;2023-09-30T15:08:04;163728.88;;;19.60
71897;BMP280;59767;51.344;12.362;2023-09-30T15:11:13;163706.59;;;19.52
71897;BMP280;59767;51.344;12.362;2023-09-30T15:14:19;163703.91;;;19.50
71897;BMP280;59767;51.344;12.362;2023-09-30T15:17:23;163701.28;;;19.49
71897;BMP280;59767;51.344;12.362;2023-09-30T15:20:30;163707.88;;;19.52
71897;BMP280;59767;51.344;12.362;2023-09-30T15:23:35;163692.09;;;19.46
71897;BMP280;59767;51.344;12.362;2023-09-30T15:26:39;163657.94;;;19.33
71897;BMP280;59767;51.344;12.362;2023-09-30T15:29:44;163664.56;;;19.36
71897;BMP280;59767;51.344;12.362;2023-09-30T15:32:49;163665.88;;;19.36
71897;BMP280;59767;51.344;12.362;2023-09-30T15:35:53;163652.75;;;19.31
71897;BMP280;59767;51.344;12.362;2023-09-30T15:38:57;163646.16;;;19.29
71897;BMP280;59767;51.344;12.362;2023-09-30T15:42:02;163638.28;;;19.26
71897;BMP280;59767;51.344;12.362;2023-09-30T15:45:06;163636.94;;;19.25
71897;BMP280;59767;51.344;12.362;2023-09-30T15:48:13;163631.75;;;19.23
71897;BMP280;59767;51.344;12.362;2023-09-30T15:51:17;163609.41;;;19.15
71897;BMP280;59767;51.344;12.362;2023-09-30T15:54:21;163593.66;;;19.09
71897;BMP280;59767;51.344;12.362;2023-09-30T15:57:25;163583.13;;;19.05
71897;BMP280;59767;51.344;12.362;2023-09-30T16:00:29;163577.91;;;19.03
71897;BMP280;59767;51.344;12.362;2023-09-30T16:03:34;163568.69;;;18.99
71897;BMP280;59767;51.344;12.362;2023-09-30T16:06:39;163552.94;;;18.93
71897;BMP280;59767;51.344;12.362;2023-09-30T16:09:43;163548.97;;;18.92
71897;BMP280;59767;51.344;12.362;2023-09-30T16:12:48;163550.31;;;18.92
71897;BMP280;59767;51.344;12.362;2023-09-30T16:15:52;163542.41;;;18.89
71897;BMP280;59767;51.344;12.362;2023-09-30T16:18:56;163530.59;;;18.85
71897;BMP280;59767;51.344;12.362;2023-09-30T16:22:00;163520.06;;;18.81
71897;BMP280;59767;51.344;12.362;2023-09-30T16:25:06;163512.22;;;18.78
71897;BMP280;59767;51.344;12.362;2023-09-30T16:28:10;163501.75;;;18.74
71897;BMP280;59767;51.344;12.362;2023-09-30T16:31:14;163488.63;;;18.69
71897;BMP280;59767;51.344;12.362;2023-09-30T16:34:20;163479.41;;;18.65
71897;BMP280;59767;51.344;12.362;2023-09-30T16:37:24;163472.84;;;18.63
71897;BMP280;59767;51.344;12.362;2023-09-30T16:40:28;163455.81;;;18.56
71897;BMP280;59767;51.344;12.362;2023-09-30T16:43:33;163442.66;;;18.51
71897;BMP280;59767;51.344;12.362;2023-09-30T16:46:38;163426.91;;;18.45
71897;BMP280;59767;51.344;12.362;2023-09-30T16:49:42;163416.38;;;18.41
71897;BMP280;59767;51.344;12.362;2023-09-30T16:52:49;163390.16;;;18.31
71897;BMP280;59767;51.344;12.362;2023-09-30T16:55:53;163365.22;;;18.22
71897;BMP280;59767;51.344;12.362;2023-09-30T16:58:57;163365.22;;;18.22
71897;BMP280;59767;51.344;12.362;2023-09-30T17:02:01;163346.84;;;18.15
71897;BMP280;59767;51.344;12.362;2023-09-30T17:05:07;163320.56;;;18.05
71897;BMP280;59767;51.344;12.362;2023-09-30T17:08:11;163296.97;;;17.96
71897;BMP280;59767;51.344;12.362;2023-09-30T17:11:19;163279.88;;;17.89
71897;BMP280;59767;51.344;12.362;2023-09-30T17:14:23;163261.56;;;17.82
71897;BMP280;59767;51.344;12.362;2023-09-30T17:17:31;163248.44;;;17.77
71897;BMP280;59767;51.344;12.362;2023-09-30T17:20:43;163241.81;;;17.75